Time;durP1;ratioP1;P1;durP2;ratioP2;P2;SDS_P1;SDS_P2;PMS_P1;PMS_P2;Temp;Humidity;BMP_temperature;BMP_pressure;BME280_temperature;BME280_humidity;BME280_pressure;Samples;Min_cycle;Max_cycle;Signal;HPM_P1;HPM_P2
2022/08/28 00:01:43;;;;;;;4.72;3.60;;;23.80;66.80;;;;;;2488231;55;21047;-73
2022/08/28 00:04:10;;;;;;;5.00;4.05;;;23.80;66.80;;;;;;2266433;55;20916;-73
2022/08/28 00:06:36;;;;;;;4.82;3.65;;;23.80;66.70;;;;;;2267856;56;21873;-73
2022/08/28 00:09:03;;;;;;;5.22;3.92;;;23.70;66.60;;;;;;2266507;55;21036;-71
2022/08/28 00:11:29;;;;;;;5.28;4.15;;;23.70;66.60;;;;;;2263375;56;20944;-71
2022/08/28 00:14:19;;;;;;;6.85;4.12;;;23.60;66.60;;;;;;2468148;55;21456;-74
2022/08/28 00:16:49;;;;;;;7.70;4.75;;;23.60;66.30;;;;;;2264412;55;20948;-73
2022/08/28 00:19:19;;;;;;;5.45;4.10;;;23.60;66.70;;;;;;2487264;55;21000;-73
2022/08/28 00:21:45;;;;;;;7.85;4.80;;;23.50;66.60;;;;;;2265504;55;20969;-72
2022/08/28 00:24:38;;;;;;;6.03;4.82;;;23.50;66.80;;;;;;2261550;56;20920;-70
2022/08/28 00:29:49;;;;;;;5.03;4.15;;;23.40;67.00;;;;;;2269426;56;21018;-74
2022/08/28 00:32:16;;;;;;;5.10;3.92;;;23.40;67.00;;;;;;2262975;55;21370;-71
2022/08/28 00:34:42;;;;;;;6.07;3.72;;;23.40;67.00;;;;;;2265046;56;20997;-71
2022/08/28 00:37:08;;;;;;;5.55;3.97;;;23.30;66.90;;;;;;2442634;55;20937;-71
2022/08/28 00:39:35;;;;;;;5.40;3.72;;;23.30;66.90;;;;;;2329263;55;21293;-74
2022/08/28 00:42:01;;;;;;;4.90;3.45;;;23.20;66.80;;;;;;2267547;55;22054;-71
2022/08/28 00:44:28;;;;;;;4.87;3.75;;;23.20;66.80;;;;;;2266476;56;20956;-74
2022/08/28 00:46:55;;;;;;;5.53;3.92;;;23.20;66.80;;;;;;2267741;56;21025;-70
2022/08/28 00:49:25;;;;;;;5.78;4.60;;;23.20;66.80;;;;;;2265781;56;21489;-71
2022/08/28 00:52:10;;;;;;;5.82;4.40;;;23.10;66.70;;;;;;2258413;55;21025;-74
2022/08/28 00:54:58;;;;;;;5.68;4.70;;;23.10;66.80;;;;;;2265460;56;20969;-75
2022/08/28 00:57:30;;;;;;;6.50;4.55;;;23.10;66.90;;;;;;2265329;55;21772;-73
2022/08/28 00:59:57;;;;;;;7.20;4.50;;;23.10;66.90;;;;;;2264855;55;21000;-71
2022/08/28 01:02:25;;;;;;;5.15;3.92;;;23.00;66.90;;;;;;2264846;56;21408;-73
2022/08/28 01:04:51;;;;;;;8.68;4.93;;;23.00;66.90;;;;;;2383115;55;21033;-71
2022/08/28 01:07:17;;;;;;;6.20;4.68;;;23.00;67.00;;;;;;2486009;55;21012;-71
2022/08/28 01:09:46;;;;;;;5.37;4.37;;;23.00;67.10;;;;;;2266707;56;20955;-71
2022/08/28 01:12:18;;;;;;;4.80;3.92;;;23.00;67.10;;;;;;2447022;55;20964;-71
2022/08/28 01:14:45;;;;;;;5.50;4.05;;;22.90;66.90;;;;;;2401525;55;21405;-71
2022/08/28 01:17:12;;;;;;;4.70;3.67;;;22.90;67.10;;;;;;2266411;56;20921;-71
2022/08/28 01:19:42;;;;;;;5.20;3.50;;;22.90;67.00;;;;;;2267377;55;21782;-71
2022/08/28 01:23:58;;;;;;;5.60;4.00;;;22.90;66.90;;;;;;2265258;55;21015;-72
2022/08/28 01:26:25;;;;;;;5.60;3.92;;;22.80;66.10;;;;;;2273396;55;20960;-71
2022/08/28 01:28:53;;;;;;;7.95;3.92;;;22.80;66.70;;;;;;2258136;56;21071;-74
2022/08/28 01:31:23;;;;;;;5.40;4.18;;;22.80;66.80;;;;;;2251333;56;20925;-73
2022/08/28 01:33:50;;;;;;;5.72;3.92;;;22.70;66.70;;;;;;2264752;56;21401;-70
2022/08/28 01:36:16;;;;;;;4.85;3.70;;;22.60;66.60;;;;;;2261533;55;20987;-71
2022/08/28 01:38:44;;;;;;;5.00;3.58;;;22.60;66.60;;;;;;2265894;56;20956;-70
2022/08/28 01:41:12;;;;;;;4.70;3.62;;;22.60;66.60;;;;;;2282015;55;21012;-72
2022/08/28 01:43:39;;;;;;;5.50;3.90;;;22.60;66.70;;;;;;2266082;55;21013;-72
2022/08/28 01:46:05;;;;;;;5.10;3.90;;;22.50;66.60;;;;;;2263865;56;20988;-72
2022/08/28 01:48:34;;;;;;;5.65;4.28;;;22.50;66.70;;;;;;2263161;56;20956;-71
2022/08/28 01:51:02;;;;;;;7.87;4.15;;;22.40;66.70;;;;;;2262776;56;21001;-72
2022/08/28 01:53:30;;;;;;;5.78;4.15;;;22.40;66.90;;;;;;2264469;56;21031;-72
2022/08/28 01:55:56;;;;;;;9.70;5.18;;;22.40;67.00;;;;;;2267303;55;20933;-74
2022/08/28 01:58:23;;;;;;;5.87;4.80;;;22.40;67.00;;;;;;2261923;56;20964;-71
2022/08/28 02:00:51;;;;;;;5.25;4.22;;;22.40;67.10;;;;;;2265085;55;21675;-70
2022/08/28 02:03:17;;;;;;;6.20;4.35;;;22.30;67.80;;;;;;2269542;55;20976;-72
2022/08/28 02:05:44;;;;;;;5.35;4.18;;;22.30;67.10;;;;;;2271280;55;21473;-70
2022/08/28 02:08:11;;;;;;;5.72;4.32;;;22.30;67.20;;;;;;2486046;55;21472;-72
2022/08/28 02:10:37;;;;;;;6.25;4.68;;;22.30;67.30;;;;;;2264487;55;21043;-72
2022/08/28 02:13:04;;;;;;;8.35;4.60;;;22.30;67.40;;;;;;2266203;55;21028;-72
2022/08/28 02:15:31;;;;;;;5.20;4.25;;;22.30;67.50;;;;;;2334803;55;20981;-72
2022/08/28 02:17:58;;;;;;;7.65;4.20;;;22.30;67.60;;;;;;2265891;56;21058;-72
2022/08/28 02:20:25;;;;;;;5.53;4.47;;;22.30;67.60;;;;;;2265374;56;21812;-75
2022/08/28 02:22:51;;;;;;;5.65;4.43;;;22.30;67.60;;;;;;2480213;55;21747;-72
2022/08/28 02:25:17;;;;;;;4.85;3.97;;;22.30;67.70;;;;;;2345558;55;20941;-72
2022/08/28 02:27:44;;;;;;;5.55;4.07;;;22.30;67.80;;;;;;2268333;55;21854;-72
2022/08/28 02:30:11;;;;;;;5.70;3.90;;;22.30;67.70;;;;;;2267775;56;21029;-72
2022/08/28 02:32:38;;;;;;;5.05;3.92;;;22.30;67.60;;;;;;2265153;56;21773;-72
2022/08/28 02:35:05;;;;;;;8.60;4.07;;;22.30;67.50;;;;;;2268939;55;21045;-72
2022/08/28 02:37:31;;;;;;;5.70;4.35;;;22.30;67.50;;;;;;2263343;56;20940;-74
2022/08/28 02:39:57;;;;;;;6.15;4.85;;;22.20;67.40;;;;;;2266203;55;20980;-72
2022/08/28 02:42:25;;;;;;;6.22;4.90;;;22.30;67.50;;;;;;2265640;56;20920;-75
2022/08/28 02:44:51;;;;;;;7.65;5.18;;;22.30;67.70;;;;;;2487332;55;20924;-75
2022/08/28 02:47:20;;;;;;;5.62;4.57;;;22.20;67.70;;;;;;2335451;54;20953;-73
2022/08/28 02:49:47;;;;;;;4.80;3.78;;;22.20;67.70;;;;;;2264799;56;21004;-72
2022/08/28 02:52:13;;;;;;;5.30;3.92;;;22.20;67.60;;;;;;2266519;56;20987;-73
2022/08/28 02:54:39;;;;;;;7.37;4.32;;;22.20;67.60;;;;;;2269397;55;21013;-71
2022/08/28 02:57:07;;;;;;;5.62;4.45;;;22.20;67.60;;;;;;2260617;56;21044;-74
2022/08/28 02:59:36;;;;;;;5.20;4.25;;;22.20;67.60;;;;;;2263141;55;21034;-72
2022/08/28 03:02:03;;;;;;;6.05;4.45;;;22.20;67.50;;;;;;2268285;55;20980;-75
2022/08/28 03:04:32;;;;;;;4.62;3.65;;;22.20;67.60;;;;;;2267131;55;21020;-71
2022/08/28 03:06:59;;;;;;;5.15;4.10;;;22.10;67.40;;;;;;2288444;55;20989;-72
2022/08/28 03:09:25;;;;;;;5.10;3.83;;;22.10;67.40;;;;;;2261050;56;20937;-74
2022/08/28 03:11:52;;;;;;;6.25;4.40;;;22.10;67.40;;;;;;2367935;55;20990;-72
2022/08/28 03:14:20;;;;;;;5.18;4.25;;;22.10;67.40;;;;;;2261673;56;20937;-72
2022/08/28 03:16:46;;;;;;;4.45;3.45;;;22.10;67.30;;;;;;2267021;56;21044;-74
2022/08/28 03:19:13;;;;;;;5.15;3.85;;;22.10;67.20;;;;;;2261756;55;21949;-72
2022/08/28 03:21:39;;;;;;;4.85;3.75;;;22.10;67.20;;;;;;2264888;55;21066;-71
2022/08/28 03:24:05;;;;;;;5.72;3.60;;;22.00;67.20;;;;;;2262002;56;21000;-71
2022/08/28 03:26:32;;;;;;;8.05;4.12;;;22.00;67.10;;;;;;2265839;55;21007;-71
2022/08/28 03:28:59;;;;;;;5.55;3.92;;;22.00;67.10;;;;;;2308577;54;20968;-72
2022/08/28 03:31:27;;;;;;;5.18;3.65;;;22.00;66.90;;;;;;2255490;56;20948;-74
2022/08/28 03:33:53;;;;;;;7.03;3.78;;;21.90;66.60;;;;;;2261634;55;20948;-74
2022/08/28 03:36:21;;;;;;;5.43;4.00;;;21.90;66.60;;;;;;2264329;56;20972;-72
2022/08/28 03:38:49;;;;;;;5.43;4.00;;;21.80;66.60;;;;;;2267751;56;20944;-75
2022/08/28 03:41:17;;;;;;;6.75;4.22;;;21.70;66.80;;;;;;2261604;56;21951;-72
2022/08/28 03:43:44;;;;;;;4.55;3.33;;;21.80;66.90;;;;;;2365807;55;20996;-74
2022/08/28 03:46:15;;;;;;;6.47;4.00;;;21.70;66.90;;;;;;2263287;55;21038;-71
2022/08/28 03:48:42;;;;;;;5.32;4.22;;;21.70;66.80;;;;;;2268630;55;21072;-72
2022/08/28 03:51:17;;;;;;;6.35;4.82;;;21.60;66.90;;;;;;2266351;56;20973;-72
2022/08/28 03:53:46;;;;;;;5.25;4.05;;;21.60;67.00;;;;;;2263813;56;20920;-71
2022/08/28 03:56:20;;;;;;;5.45;4.25;;;21.60;67.20;;;;;;2265902;56;20944;-72
2022/08/28 03:58:47;;;;;;;6.32;4.72;;;21.60;67.30;;;;;;2263229;56;21052;-72
2022/08/28 04:01:13;;;;;;;6.78;4.65;;;21.60;67.50;;;;;;2268644;56;21006;-72
2022/08/28 04:03:40;;;;;;;5.35;4.30;;;21.50;67.40;;;;;;2487804;55;20960;-72
2022/08/28 04:06:06;;;;;;;4.82;3.67;;;21.50;67.40;;;;;;2266200;56;20937;-72
2022/08/28 04:08:32;;;;;;;4.97;3.78;;;21.50;67.50;;;;;;2367588;55;21506;-73
2022/08/28 04:10:59;;;;;;;5.47;3.90;;;21.50;67.40;;;;;;2266305;56;20937;-71
2022/08/28 04:13:25;;;;;;;5.62;3.65;;;21.50;67.30;;;;;;2490612;55;20991;-72
2022/08/28 04:15:56;;;;;;;4.18;3.35;;;21.40;67.10;;;;;;2372667;55;21035;-72
2022/08/28 04:18:23;;;;;;;5.82;4.00;;;21.40;67.00;;;;;;2269232;56;21879;-72
2022/08/28 04:21:04;;;;;;;6.60;4.50;;;21.40;67.20;;;;;;2263662;56;20955;-72
2022/08/28 04:23:30;;;;;;;5.28;3.87;;;21.40;67.30;;;;;;2439788;55;20984;-75
2022/08/28 04:25:56;;;;;;;6.70;4.20;;;21.40;67.50;;;;;;2269322;55;20948;-72
2022/08/28 04:28:23;;;;;;;5.53;4.43;;;21.30;67.50;;;;;;2263468;55;21031;-71
2022/08/28 04:30:55;;;;;;;4.82;3.75;;;21.30;67.50;;;;;;2263841;55;21041;-71
2022/08/28 04:33:22;;;;;;;5.30;3.90;;;21.30;67.40;;;;;;2263996;55;20925;-72
2022/08/28 04:35:49;;;;;;;5.10;3.87;;;21.30;67.30;;;;;;2265011;56;21527;-71
2022/08/28 04:38:15;;;;;;;5.82;4.10;;;21.20;67.00;;;;;;2291264;55;20976;-71
2022/08/28 04:40:44;;;;;;;6.93;4.80;;;21.30;67.10;;;;;;2262749;55;21347;-73
2022/08/28 04:43:11;;;;;;;5.62;3.87;;;21.30;67.20;;;;;;2262215;56;20940;-71
2022/08/28 04:45:42;;;;;;;5.40;3.55;;;21.20;67.10;;;;;;2266041;55;21429;-71
2022/08/28 04:48:09;;;;;;;4.80;3.35;;;21.20;67.00;;;;;;2264129;56;20988;-72
2022/08/28 04:50:42;;;;;;;5.07;3.37;;;21.20;66.90;;;;;;2269548;56;20932;-74
2022/08/28 04:53:09;;;;;;;5.20;3.58;;;21.10;66.70;;;;;;2271110;55;21093;-72
2022/08/28 04:55:47;;;;;;;6.45;3.40;;;21.10;66.80;;;;;;2265884;55;20971;-75
2022/08/28 04:58:13;;;;;;;4.87;3.60;;;21.10;66.60;;;;;;2267029;55;21727;-71
2022/08/28 05:00:41;;;;;;;6.00;4.30;;;21.00;66.80;;;;;;2263108;55;20989;-71
2022/08/28 05:03:10;;;;;;;5.18;4.07;;;21.00;66.90;;;;;;2264717;55;21546;-72
2022/08/28 05:05:43;;;;;;;6.60;3.85;;;21.00;67.00;;;;;;2262803;55;20943;-71
2022/08/28 05:08:10;;;;;;;4.87;3.65;;;21.00;66.90;;;;;;2269429;56;20963;-74
2022/08/28 05:10:39;;;;;;;4.03;3.05;;;20.90;67.00;;;;;;2270857;55;20925;-72
2022/08/28 05:13:07;;;;;;;5.12;3.55;;;20.90;67.10;;;;;;2415589;55;20957;-71
2022/08/28 05:15:37;;;;;;;5.32;3.70;;;20.90;67.10;;;;;;2267161;55;20987;-71
2022/08/28 05:18:03;;;;;;;6.62;4.03;;;20.90;67.10;;;;;;2354332;55;21062;-71
2022/08/28 05:20:34;;;;;;;6.93;4.28;;;20.80;67.10;;;;;;2320858;55;21051;-72
2022/08/28 05:23:00;;;;;;;6.95;4.80;;;20.80;67.20;;;;;;2334377;55;21794;-71
2022/08/28 05:25:28;;;;;;;7.32;5.35;;;20.80;67.30;;;;;;2262759;55;21299;-71
2022/08/28 05:27:54;;;;;;;5.93;3.90;;;20.80;67.40;;;;;;2263006;56;20952;-72
2022/08/28 05:30:21;;;;;;;5.32;3.87;;;20.80;67.50;;;;;;2485004;55;21942;-72
2022/08/28 05:32:47;;;;;;;7.30;4.82;;;20.80;67.70;;;;;;2262451;56;21448;-71
2022/08/28 05:35:14;;;;;;;7.30;5.30;;;20.80;67.80;;;;;;2265444;55;21557;-75
2022/08/28 05:37:40;;;;;;;7.03;4.90;;;20.80;68.70;;;;;;2263080;56;21496;-72
2022/08/28 05:40:09;;;;;;;7.62;4.95;;;20.80;68.20;;;;;;2262454;56;20971;-73
2022/08/28 05:42:36;;;;;;;7.82;5.82;;;20.80;68.40;;;;;;2266820;55;21076;-73
2022/08/28 05:45:05;;;;;;;7.60;4.47;;;20.80;68.60;;;;;;2264904;56;21876;-72
2022/08/28 05:47:32;;;;;;;6.75;4.82;;;20.80;68.60;;;;;;2258896;55;21002;-73
2022/08/28 05:49:59;;;;;;;7.43;5.57;;;20.80;68.70;;;;;;2268288;55;21762;-71
2022/08/28 05:52:25;;;;;;;7.28;5.45;;;20.90;68.90;;;;;;2335095;55;21032;-72
2022/08/28 05:54:52;;;;;;;6.55;4.68;;;20.90;68.90;;;;;;2264078;55;20984;-72
2022/08/28 05:57:42;;;;;;;6.80;4.40;;;21.00;69.10;;;;;;2266456;55;21059;-72
2022/08/28 06:00:11;;;;;;;7.18;5.47;;;21.00;68.90;;;;;;2298547;55;21469;-73
2022/08/28 06:02:43;;;;;;;6.40;4.57;;;21.00;69.10;;;;;;2260679;56;20983;-72
2022/08/28 06:05:11;;;;;;;5.78;4.20;;;21.10;69.30;;;;;;2269151;55;20960;-72
2022/08/28 06:07:37;;;;;;;6.12;4.55;;;21.10;69.20;;;;;;2260784;56;21532;-71
2022/08/28 06:10:16;;;;;;;7.68;5.82;;;21.10;69.10;;;;;;2259085;55;20971;-72
2022/08/28 06:12:42;;;;;;;6.20;4.60;;;21.10;69.10;;;;;;2245643;56;21266;-72
2022/08/28 06:15:09;;;;;;;6.03;4.35;;;21.20;69.30;;;;;;2249639;56;20957;-72
2022/08/28 06:17:36;;;;;;;6.87;4.30;;;21.20;69.30;;;;;;2266426;55;20924;-75
2022/08/28 06:20:03;;;;;;;6.05;4.53;;;21.20;69.30;;;;;;2251282;56;21504;-71
2022/08/28 06:22:29;;;;;;;6.65;4.62;;;21.20;69.40;;;;;;2266844;55;20961;-72
2022/08/28 06:24:55;;;;;;;7.65;5.60;;;21.30;69.50;;;;;;2262147;56;20928;-72
2022/08/28 06:27:38;;;;;;;6.65;4.87;;;21.30;69.50;;;;;;2277261;54;20941;-73
2022/08/28 06:30:05;;;;;;;6.40;4.65;;;21.30;69.40;;;;;;2262806;55;20936;-72
2022/08/28 06:32:31;;;;;;;7.50;5.18;;;21.40;69.60;;;;;;2372289;55;20952;-73
2022/08/28 06:34:58;;;;;;;8.00;6.07;;;21.40;69.60;;;;;;2263087;56;21029;-72
2022/08/28 06:37:24;;;;;;;7.53;5.55;;;21.50;69.70;;;;;;2256625;55;21006;-72
2022/08/28 06:39:50;;;;;;;10.30;6.00;;;21.50;69.60;;;;;;2268941;55;21012;-72
2022/08/28 06:42:30;;;;;;;6.55;4.87;;;21.60;69.70;;;;;;2258506;56;21024;-72
2022/08/28 06:44:57;;;;;;;7.78;5.55;;;21.60;69.70;;;;;;2267408;55;21558;-72
2022/08/28 06:51:08;;;;;;;7.28;5.37;;;21.60;69.40;;;;;;2263251;55;22006;-71
2022/08/28 06:53:34;;;;;;;8.07;5.70;;;21.70;69.60;;;;;;2265888;55;21851;-72
2022/08/28 06:56:06;;;;;;;10.18;7.22;;;21.70;69.60;;;;;;2269621;56;20969;-75
2022/08/28 06:58:32;;;;;;;8.47;5.70;;;21.80;69.80;;;;;;2262906;56;21519;-72
2022/08/28 07:01:06;;;;;;;10.05;6.70;;;21.80;69.90;;;;;;2264220;55;21051;-74
2022/08/28 07:03:55;;;;;;;7.68;5.53;;;21.90;70.00;;;;;;2259882;55;20995;-72
2022/08/28 07:06:49;;;;;;;7.40;5.22;;;21.90;69.90;;;;;;2307803;55;21036;-72
2022/08/28 07:09:43;;;;;;;7.03;4.95;;;22.00;69.80;;;;;;2446318;55;21045;-71
2022/08/28 07:12:12;;;;;;;9.05;6.28;;;22.00;69.80;;;;;;2285530;55;21112;-71
2022/08/28 07:14:42;;;;;;;8.55;6.57;;;22.00;69.80;;;;;;2263301;56;21017;-71
2022/08/28 07:17:09;;;;;;;8.38;6.28;;;22.00;69.80;;;;;;2266809;55;21004;-71
2022/08/28 07:19:37;;;;;;;8.93;6.40;;;22.10;69.90;;;;;;2258513;56;20928;-71
2022/08/28 07:22:04;;;;;;;12.80;8.05;;;22.10;69.80;;;;;;2261942;55;20992;-70
2022/08/28 07:24:30;;;;;;;9.40;6.95;;;22.10;69.80;;;;;;2320758;55;21818;-72
2022/08/28 07:26:57;;;;;;;9.25;7.32;;;22.20;69.90;;;;;;2261444;55;20960;-72
2022/08/28 07:29:24;;;;;;;9.23;7.12;;;22.20;69.80;;;;;;2271051;55;21077;-73
2022/08/28 07:31:51;;;;;;;8.43;6.35;;;22.20;69.70;;;;;;2255541;56;20985;-71
2022/08/28 07:34:29;;;;;;;9.38;7.22;;;22.30;69.80;;;;;;2267399;55;20940;-71
2022/08/28 07:37:02;;;;;;;8.70;6.40;;;22.30;69.60;;;;;;2263979;55;20961;-72
2022/08/28 07:39:29;;;;;;;8.30;6.55;;;22.30;69.70;;;;;;2403236;55;20980;-73
2022/08/28 07:41:56;;;;;;;10.57;6.62;;;22.40;69.80;;;;;;2263545;56;20916;-73
2022/08/28 07:44:53;;;;;;;10.10;7.68;;;22.40;69.80;;;;;;2353014;55;20972;-71
2022/08/28 07:47:19;;;;;;;10.00;7.82;;;22.50;69.90;;;;;;2268777;55;21035;-72
2022/08/28 07:49:47;;;;;;;11.02;8.60;;;22.50;70.10;;;;;;2476972;55;21033;-70
2022/08/28 07:52:13;;;;;;;9.32;7.47;;;22.50;70.10;;;;;;2266788;56;21320;-74
2022/08/28 07:54:39;;;;;;;9.15;7.25;;;22.60;70.20;;;;;;2268991;56;20960;-72
2022/08/28 07:57:08;;;;;;;9.80;7.40;;;22.60;70.20;;;;;;2262761;55;20952;-73
2022/08/28 07:59:36;;;;;;;7.87;6.70;;;22.70;70.30;;;;;;2267279;55;21043;-74
2022/08/28 08:02:46;;;;;;;8.88;7.35;;;22.70;70.20;;;;;;2262580;56;21111;-75
2022/08/28 08:05:14;;;;;;;10.73;7.50;;;22.80;70.00;;;;;;2269964;55;20959;-72
2022/08/28 08:07:42;;;;;;;10.27;6.93;;;22.80;70.20;;;;;;2259807;55;21038;-71
2022/08/28 08:10:29;;;;;;;8.43;7.07;;;22.90;70.30;;;;;;2268907;55;21029;-70
2022/08/28 08:12:55;;;;;;;9.73;7.97;;;23.00;69.90;;;;;;2411511;55;20952;-71
2022/08/28 08:15:22;;;;;;;8.95;7.22;;;23.00;70.80;;;;;;2263737;56;21755;-72
2022/08/28 08:17:48;;;;;;;8.48;7.45;;;23.10;70.30;;;;;;2268805;56;20960;-73
2022/08/28 08:20:16;;;;;;;9.07;7.62;;;23.10;70.40;;;;;;2267114;55;21364;-73
2022/08/28 08:22:44;;;;;;;10.85;8.25;;;23.20;70.40;;;;;;2265570;56;21007;-72
2022/08/28 08:25:10;;;;;;;11.55;8.98;;;23.20;70.30;;;;;;2260754;55;21083;-73
2022/08/28 08:27:36;;;;;;;11.82;9.35;;;23.20;70.20;;;;;;2265131;55;21060;-73
2022/08/28 08:30:06;;;;;;;10.05;7.87;;;23.30;70.10;;;;;;2263222;56;20928;-72
2022/08/28 08:32:51;;;;;;;11.57;7.95;;;23.40;70.20;;;;;;2263864;56;20928;-73
2022/08/28 08:35:17;;;;;;;9.63;7.35;;;23.40;69.90;;;;;;2265906;55;21889;-73
2022/08/28 08:37:52;;;;;;;9.88;8.23;;;23.50;70.30;;;;;;2462985;55;20980;-74
2022/08/28 08:40:21;;;;;;;10.05;8.40;;;23.50;70.00;;;;;;2265118;56;21036;-72
2022/08/28 08:42:49;;;;;;;9.02;7.43;;;23.50;70.10;;;;;;2484869;55;21513;-71
2022/08/28 08:45:16;;;;;;;10.50;8.35;;;23.60;70.20;;;;;;2265590;56;21891;-72
2022/08/28 08:47:47;;;;;;;8.68;7.78;;;23.60;70.20;;;;;;2484220;55;20987;-71
2022/08/28 08:50:28;;;;;;;12.20;9.45;;;23.70;70.30;;;;;;2269185;55;20970;-71
2022/08/28 08:53:27;;;;;;;14.95;8.02;;;23.80;70.10;;;;;;2373232;55;21000;-72
2022/08/28 08:55:54;;;;;;;9.20;7.28;;;23.80;70.10;;;;;;2265476;55;21000;-72
2022/08/28 08:58:39;;;;;;;10.52;8.43;;;23.90;70.50;;;;;;2248698;55;21070;-72
2022/08/28 09:01:22;;;;;;;8.38;6.90;;;23.90;70.00;;;;;;2265300;55;21077;-75
2022/08/28 09:06:39;;;;;;;9.10;7.32;;;24.00;70.20;;;;;;2262995;56;21036;-72
2022/08/28 09:09:08;;;;;;;7.30;5.85;;;24.20;70.10;;;;;;2263150;55;20960;-70
2022/08/28 09:11:55;;;;;;;9.38;6.97;;;24.20;70.40;;;;;;2414430;55;21074;-74
2022/08/28 09:17:53;;;;;;;7.37;5.95;;;24.30;70.00;;;;;;2432672;55;21052;-71
2022/08/28 09:20:26;;;;;;;7.55;4.78;;;24.50;70.00;;;;;;2270230;55;21035;-72
2022/08/28 09:22:54;;;;;;;7.35;6.22;;;24.60;70.10;;;;;;2486236;54;20965;-73
2022/08/28 09:25:49;;;;;;;7.25;5.80;;;24.60;70.20;;;;;;2410590;55;20993;-71
2022/08/28 09:28:58;;;;;;;7.22;6.05;;;24.70;69.50;;;;;;2259783;55;20939;-71
2022/08/28 09:31:36;;;;;;;7.72;6.25;;;24.80;69.10;;;;;;2409064;55;21012;-72
2022/08/28 09:34:17;;;;;;;6.95;5.50;;;24.80;69.20;;;;;;2267632;55;20956;-74
2022/08/28 09:36:45;;;;;;;7.28;6.00;;;24.90;69.10;;;;;;2264750;56;20973;-72
2022/08/28 09:39:39;;;;;;;6.65;5.12;;;24.90;69.40;;;;;;2260531;56;21067;-72
2022/08/28 09:45:17;;;;;;;6.78;5.45;;;25.10;68.90;;;;;;2264239;56;21894;-72
2022/08/28 09:47:52;;;;;;;6.72;5.50;;;25.20;68.50;;;;;;2266408;55;21068;-73
2022/08/28 09:50:38;;;;;;;7.57;5.93;;;25.20;68.90;;;;;;2281382;55;21028;-71
2022/08/28 09:53:16;;;;;;;7.05;5.28;;;25.30;68.10;;;;;;2244655;56;20948;-74
2022/08/28 09:56:09;;;;;;;6.10;4.93;;;25.30;68.40;;;;;;2243198;56;21177;-74
2022/08/28 09:58:44;;;;;;;6.45;4.30;;;25.40;68.20;;;;;;2265411;55;20947;-72
2022/08/28 10:01:23;;;;;;;6.65;5.07;;;25.40;68.50;;;;;;2450708;54;20972;-71
2022/08/28 10:04:02;;;;;;;7.30;5.40;;;25.50;68.40;;;;;;2381063;55;21443;-72
2022/08/28 10:06:30;;;;;;;6.25;4.55;;;25.60;68.20;;;;;;2492966;55;21434;-72
2022/08/28 10:10:59;;;;;;;5.28;4.20;;;25.60;68.40;;;;;;2262408;56;20940;-71
2022/08/28 10:13:32;;;;;;;5.18;3.92;;;25.70;67.60;;;;;;2268231;55;21862;-72
2022/08/28 10:16:24;;;;;;;5.35;4.32;;;25.80;68.10;;;;;;2262048;55;21615;-72
2022/08/28 10:19:10;;;;;;;6.60;4.60;;;25.90;67.40;;;;;;2265928;56;20964;-72
2022/08/28 10:22:45;;;;;;;6.97;4.28;;;25.90;67.90;;;;;;2265321;56;20960;-73
2022/08/28 10:35:10;;;;;;;5.72;4.05;;;26.00;67.00;;;;;;2262972;56;21835;-72
2022/08/28 10:37:46;;;;;;;4.12;3.15;;;26.30;67.30;;;;;;2344676;55;20987;-71
2022/08/28 10:40:58;;;;;;;4.85;3.85;;;26.50;67.30;;;;;;2263230;56;20965;-73
2022/08/28 10:43:30;;;;;;;5.87;3.92;;;26.50;67.30;;;;;;2367122;55;20992;-71
2022/08/28 10:45:58;;;;;;;;;;;26.60;67.10;;;;;;2266898;55;21007;-72
2022/08/28 10:48:39;;;;;;;4.43;3.65;;;26.60;66.60;;;;;;2264667;55;20074;-72
2022/08/28 10:51:10;;;;;;;5.50;3.83;;;26.70;66.90;;;;;;2271229;55;21005;-72
2022/08/28 10:53:38;;;;;;;6.30;4.07;;;26.70;67.00;;;;;;2270017;55;21835;-72
2022/08/28 10:56:12;;;;;;;5.10;4.00;;;26.70;66.90;;;;;;2322285;55;20961;-74
2022/08/28 10:58:39;;;;;;;5.87;4.37;;;26.80;66.50;;;;;;2269559;55;21019;-72
2022/08/28 11:01:13;;;;;;;5.80;4.72;;;26.80;66.60;;;;;;2264004;56;21015;-71
2022/08/28 11:03:42;;;;;;;5.30;4.68;;;26.90;66.30;;;;;;2270717;55;21859;-73
2022/08/28 11:06:34;;;;;;;5.62;4.20;;;27.00;66.20;;;;;;2267504;55;20984;-72
2022/08/28 11:09:23;;;;;;;6.47;4.50;;;27.10;66.00;;;;;;2261567;56;20948;-71
2022/08/28 11:11:51;;;;;;;4.82;4.10;;;27.10;66.10;;;;;;2264912;55;20987;-75
2022/08/28 11:14:24;;;;;;;5.07;4.28;;;27.20;66.10;;;;;;2265922;56;21016;-74
2022/08/28 11:16:51;;;;;;;5.53;4.15;;;27.20;65.30;;;;;;2265406;55;20997;-69
2022/08/28 11:19:52;;;;;;;5.37;4.53;;;27.20;65.80;;;;;;2319375;55;21000;-72
2022/08/28 11:22:23;;;;;;;5.07;4.12;;;27.30;64.80;;;;;;2271566;56;21871;-71
2022/08/28 11:26:25;;;;;;;4.53;3.85;;;27.30;65.30;;;;;;2291608;55;20969;-73
2022/08/28 11:28:52;;;;;;;4.82;3.78;;;27.40;65.20;;;;;;2267794;55;21712;-72
2022/08/28 11:31:27;;;;;;;5.47;4.15;;;27.50;65.30;;;;;;2265116;56;21016;-70
2022/08/28 11:33:54;;;;;;;5.30;4.05;;;27.50;64.20;;;;;;2271054;55;21052;-70
2022/08/28 11:37:06;;;;;;;5.70;4.15;;;27.50;64.70;;;;;;2264009;56;20984;-71
2022/08/28 11:39:32;;;;;;;5.43;4.25;;;27.60;63.30;;;;;;2268912;55;21823;-71
2022/08/28 11:44:51;;;;;;;5.22;4.03;;;27.60;64.10;;;;;;2266671;56;21872;-72
2022/08/28 11:47:38;;;;;;;5.37;3.53;;;27.60;62.70;;;;;;2269855;56;21042;-71
2022/08/28 11:50:26;;;;;;;4.57;3.65;;;27.70;62.80;;;;;;2485618;54;21012;-71
2022/08/28 11:53:15;;;;;;;5.47;4.40;;;27.70;62.60;;;;;;2267780;55;21500;-73
2022/08/28 11:59:43;;;;;;;5.53;4.12;;;27.80;62.40;;;;;;2264828;55;20988;-73
2022/08/28 12:02:35;;;;;;;3.22;2.45;;;27.90;62.70;;;;;;2269031;55;21456;-73
2022/08/28 12:05:34;;;;;;;4.28;3.12;;;28.00;63.00;;;;;;2268405;55;21279;-74
2022/08/28 12:08:01;;;;;;;3.80;2.80;;;28.00;63.10;;;;;;2262785;55;20995;-74
2022/08/28 12:12:12;;;;;;;4.90;3.50;;;28.10;64.00;;;;;;2386813;55;20996;-73
2022/08/28 12:15:01;;;;;;;3.87;2.90;;;28.20;62.60;;;;;;2266864;56;21040;-69
2022/08/28 12:17:40;;;;;;;3.90;2.92;;;28.20;62.00;;;;;;2267860;56;20991;-71
2022/08/28 12:20:09;;;;;;;7.22;4.03;;;28.20;62.20;;;;;;2263503;55;22004;-72
2022/08/28 12:22:55;;;;;;;5.05;3.72;;;28.20;62.80;;;;;;2265433;56;20929;-72
2022/08/28 12:25:25;;;;;;;4.65;3.45;;;28.30;62.00;;;;;;2269785;55;21526;-71
2022/08/28 12:27:52;;;;;;;5.12;4.20;;;28.30;62.30;;;;;;2260402;56;21496;-71
2022/08/28 12:30:38;;;;;;;4.70;3.78;;;28.30;62.30;;;;;;2272723;55;20961;-70
2022/08/28 12:33:16;;;;;;;4.72;3.47;;;28.40;61.10;;;;;;2267518;56;20940;-70
2022/08/28 12:35:43;;;;;;;4.57;3.70;;;28.40;61.40;;;;;;2486948;55;21528;-69
2022/08/28 12:38:17;;;;;;;7.82;3.85;;;28.40;61.80;;;;;;2263093;56;20945;-71
2022/08/28 12:40:52;;;;;;;4.93;4.03;;;28.50;61.00;;;;;;2266511;55;21029;-72
2022/08/28 12:43:34;;;;;;;4.95;3.50;;;28.50;61.00;;;;;;2264404;56;21011;-71
2022/08/28 12:46:03;;;;;;;4.43;3.42;;;28.60;60.70;;;;;;2262183;55;20983;-70
2022/08/28 12:48:31;;;;;;;5.28;3.80;;;28.60;61.10;;;;;;2266884;55;20995;-70
2022/08/28 12:51:03;;;;;;;5.45;3.40;;;28.60;61.10;;;;;;2266980;55;20929;-71
2022/08/28 12:53:41;;;;;;;4.93;3.65;;;28.70;60.90;;;;;;2289398;56;21102;-74
2022/08/28 12:56:12;;;;;;;5.68;4.00;;;28.70;60.70;;;;;;2264803;55;21030;-71
2022/08/28 12:58:39;;;;;;;4.47;3.45;;;28.70;60.90;;;;;;2371213;55;20967;-71
2022/08/28 13:01:28;;;;;;;5.30;3.97;;;28.80;61.30;;;;;;2265758;56;21000;-69
2022/08/28 13:04:02;;;;;;;4.75;3.17;;;28.80;60.80;;;;;;2315954;55;20945;-75
2022/08/28 13:06:30;;;;;;;6.07;3.75;;;28.90;61.00;;;;;;2261279;55;21532;-71
2022/08/28 13:09:01;;;;;;;7.22;4.45;;;28.90;60.70;;;;;;2261822;55;20944;-71
2022/08/28 13:11:30;;;;;;;4.85;3.70;;;29.00;60.00;;;;;;2494623;55;20975;-72
2022/08/28 13:13:57;;;;;;;5.80;4.22;;;29.00;59.80;;;;;;2267265;55;21023;-71
2022/08/28 13:16:50;;;;;;;4.40;3.65;;;29.10;59.80;;;;;;2272438;55;20976;-71
2022/08/28 13:19:30;;;;;;;4.78;3.50;;;29.10;58.80;;;;;;2413499;55;20964;-74
2022/08/28 13:22:04;;;;;;;5.03;3.30;;;29.20;58.80;;;;;;2265018;55;21023;-75
2022/08/28 13:24:37;;;;;;;4.97;3.85;;;29.20;59.20;;;;;;2266736;56;21020;-72
2022/08/28 13:27:25;;;;;;;4.40;3.47;;;29.20;58.80;;;;;;2276029;55;21806;-72
2022/08/28 13:30:47;;;;;;;4.53;3.58;;;29.30;58.30;;;;;;2262822;55;20964;-72
2022/08/28 13:33:24;;;;;;;5.33;3.30;;;29.30;58.40;;;;;;2269262;55;21391;-73
2022/08/28 13:35:51;;;;;;;4.68;3.12;;;29.40;58.90;;;;;;2267470;56;21000;-74
2022/08/28 13:38:18;;;;;;;4.00;3.00;;;29.30;59.50;;;;;;2304657;55;20952;-72
2022/08/28 13:40:56;;;;;;;4.80;3.50;;;29.40;59.80;;;;;;2266249;56;20960;-72
2022/08/28 13:43:25;;;;;;;4.35;3.40;;;29.50;58.70;;;;;;2261429;56;20969;-71
2022/08/28 13:45:51;;;;;;;3.85;2.72;;;29.50;59.30;;;;;;2268362;55;21492;-71
2022/08/28 13:48:22;;;;;;;5.32;3.70;;;29.50;59.20;;;;;;2314482;55;20976;-70
2022/08/28 13:51:00;;;;;;;5.25;3.30;;;29.60;59.10;;;;;;2263273;55;21135;-70